Time;durP1;ratioP1;P1;durP2;ratioP2;P2;SDS_P1;SDS_P2;PMS_P1;PMS_P2;Temp;Humidity;BMP_temperature;BMP_pressure;BME280_temperature;BME280_humidity;BME280_pressure;Samples;Min_cycle;Max_cycle;Signal;HPM_P1;HPM_P2
2022/08/01 00:00:30;;;;;;;3.15;1.35;;;;;;;24.19;64.42;100333.88;4977220;28;20046;-79
2022/08/01 00:03:42;;;;;;;7.25;1.60;;;;;;;23.98;64.84;100321.16;5120247;23;20061;-82
2022/08/01 00:06:23;;;;;;;6.83;1.50;;;;;;;23.78;65.53;100324.47;4994698;28;20050;-82
2022/08/01 00:38:33;;;;;;;4.35;1.38;;;;;;;24.39;62.24;100334.06;3416247;23;20046;-81
2022/08/01 00:41:08;;;;;;;9.25;1.50;;;;;;;24.23;62.48;100326.06;5001095;28;20046;-86
2022/08/01 00:43:49;;;;;;;2.80;1.25;;;;;;;24.07;63.32;100328.56;4989591;28;20155;-85
2022/08/01 00:46:18;;;;;;;3.47;1.33;;;;;;;24.00;63.52;100330.66;4980146;28;20082;-89
2022/08/01 00:48:47;;;;;;;4.30;1.50;;;;;;;23.87;65.26;100325.63;4989585;28;20035;-86
2022/08/01 00:51:40;;;;;;;2.53;1.23;;;;;;;23.82;65.39;100322.88;5008611;23;20089;-85
2022/08/01 00:54:30;;;;;;;5.57;1.17;;;;;;;23.95;65.21;100327.91;5011277;28;20031;-84
2022/08/01 00:57:05;;;;;;;2.13;1.05;;;;;;;24.08;63.85;100327.50;4974450;28;20057;-86
2022/08/01 00:59:46;;;;;;;;;;;;;;;24.08;64.73;100323.97;5009457;28;20046;-85
2022/08/01 01:02:53;;;;;;;3.30;1.23;;;;;;;23.85;65.72;100322.38;5024757;23;19926;-88
2022/08/01 01:05:38;;;;;;;8.23;1.52;;;;;;;23.77;65.14;100325.53;4987837;28;20047;-84
2022/08/01 01:08:19;;;;;;;4.03;1.30;;;;;;;23.76;64.38;100326.63;4990218;28;20034;-88
2022/08/01 01:11:01;;;;;;;2.08;1.25;;;;;;;23.76;63.90;100323.91;4972230;28;20077;-85
2022/08/01 01:13:43;;;;;;;3.13;1.30;;;;;;;23.68;64.26;100332.47;4989839;28;20035;-83
2022/08/01 01:16:16;;;;;;;7.00;1.15;;;;;;;23.61;64.92;100321.81;4989072;28;20127;-86
2022/08/01 01:18:56;;;;;;;2.42;1.25;;;;;;;23.69;64.89;100312.47;4972659;28;20039;-86
2022/08/01 01:21:45;;;;;;;3.90;1.45;;;;;;;23.64;65.65;100325.91;4973031;28;20038;-87
2022/08/01 01:24:40;;;;;;;5.07;1.35;;;;;;;23.62;65.90;100314.53;4972444;28;20560;-88
2022/08/01 01:27:32;;;;;;;2.75;1.40;;;;;;;23.60;66.99;100325.59;4938397;29;20092;-85
2022/08/01 01:30:29;;;;;;;3.53;1.20;;;;;;;23.79;66.13;100320.69;4968625;28;20069;-83
2022/08/01 01:33:01;;;;;;;3.67;1.30;;;;;;;23.75;66.65;100314.16;4988182;28;20047;-83
2022/08/01 01:35:36;;;;;;;7.70;1.50;;;;;;;23.78;66.75;100310.09;4956649;28;20046;-86
2022/08/01 01:38:21;;;;;;;3.85;1.30;;;;;;;23.71;66.96;100314.88;4987972;28;20135;-84
2022/08/01 01:40:59;;;;;;;6.60;1.30;;;;;;;23.61;67.54;100318.28;4971992;28;20031;-87
2022/08/01 01:43:29;;;;;;;2.72;1.25;;;;;;;23.66;67.10;100312.97;4952829;28;20043;-86
2022/08/01 01:46:05;;;;;;;2.65;1.00;;;;;;;23.86;65.93;100309.66;4988873;28;20044;-84
2022/08/01 01:48:34;;;;;;;2.83;1.10;;;;;;;23.98;64.08;100313.84;4966171;28;20051;-86
2022/08/01 01:51:39;;;;;;;3.72;1.00;;;;;;;23.97;63.82;100316.81;4972343;28;20045;-88
2022/08/01 01:54:36;;;;;;;1.58;1.10;;;;;;;23.86;64.48;100315.09;4988834;28;20054;-88
2022/08/01 01:57:09;;;;;;;4.22;1.40;;;;;;;23.58;65.55;100318.81;4985837;28;20061;-83
2022/08/01 02:00:30;;;;;;;5.28;1.20;;;;;;;23.51;65.52;100326.28;4964127;28;20047;-89
2022/08/01 02:03:18;;;;;;;3.05;1.00;;;;;;;23.43;65.54;100324.03;4973634;28;20051;-87
2022/08/01 02:06:03;;;;;;;3.80;1.13;;;;;;;23.61;64.16;100321.81;4988867;28;20042;-87
2022/08/01 02:08:34;;;;;;;3.97;1.25;;;;;;;23.78;63.81;100316.34;4989379;28;20035;-84
2022/08/01 02:11:18;;;;;;;5.40;1.20;;;;;;;23.51;65.28;100326.28;4989344;28;20081;-85
2022/08/01 02:13:53;;;;;;;2.22;1.20;;;;;;;23.28;66.05;100323.78;4961069;28;20039;-87
2022/08/01 02:16:29;;;;;;;1.92;1.30;;;;;;;23.07;67.26;100328.09;4993190;28;20031;-83
2022/08/01 02:18:56;;;;;;;3.70;1.50;;;;;;;22.99;67.87;100332.06;4992052;28;20143;-88
2022/08/01 02:21:46;;;;;;;2.50;1.30;;;;;;;22.80;69.06;100325.28;4970545;28;20051;-84
2022/08/01 02:24:49;;;;;;;5.53;1.58;;;;;;;22.78;68.87;100322.00;4987783;28;20042;-86
2022/08/01 02:27:25;;;;;;;3.05;1.50;;;;;;;22.78;69.48;100327.38;4993255;28;20038;-88
2022/08/01 02:30:04;;;;;;;1.88;1.40;;;;;;;22.70;69.23;100329.69;4946183;28;20047;-90
2022/08/01 02:33:09;;;;;;;1.73;1.20;;;;;;;22.59;70.08;100329.50;4976239;28;20050;-88
2022/08/01 02:36:15;;;;;;;2.92;1.55;;;;;;;22.56;70.56;100334.56;4865220;29;20530;-89
2022/08/01 02:38:44;;;;;;;4.75;1.50;;;;;;;22.58;70.77;100335.97;4896419;29;20045;-83
2022/08/01 02:41:17;;;;;;;2.13;1.30;;;;;;;22.69;71.16;100333.47;4889749;29;20047;-87
2022/08/01 02:43:58;;;;;;;5.53;1.63;;;;;;;22.59;72.18;100340.31;4892587;29;20057;-86
2022/08/01 02:46:49;;;;;;;4.13;1.70;;;;;;;22.58;72.66;100333.25;4895998;29;20044;-85
2022/08/01 02:49:48;;;;;;;4.00;1.45;;;;;;;22.55;72.82;100343.72;4879374;29;20072;-89
2022/08/01 02:52:22;;;;;;;2.83;1.52;;;;;;;22.51;73.33;100345.28;4895874;29;20838;-88
2022/08/01 02:54:52;;;;;;;1.95;1.40;;;;;;;22.68;72.83;100340.75;4894799;29;20037;-86
2022/08/01 02:57:33;;;;;;;7.78;1.85;;;;;;;22.64;73.74;100342.25;4879148;29;20049;-85
2022/08/01 03:00:10;;;;;;;3.63;1.40;;;;;;;22.69;73.63;100355.88;4858784;29;20060;-87
2022/08/01 03:02:50;;;;;;;4.97;1.55;;;;;;;22.64;72.10;100342.25;4895694;29;20053;-86
2022/08/01 03:05:22;;;;;;;3.63;1.60;;;;;;;22.62;72.67;100349.78;4892729;29;20056;-88
2022/08/01 03:08:01;;;;;;;3.75;1.75;;;;;;;22.60;72.32;100346.53;4894597;29;20061;-85
2022/08/01 03:10:38;;;;;;;6.78;2.13;;;;;;;22.58;72.84;100357.56;4982081;28;20050;-85
2022/08/01 03:13:10;;;;;;;5.15;1.75;;;;;;;22.54;74.25;100353.72;4960352;28;20038;-87
2022/08/01 03:15:47;;;;;;;3.38;1.65;;;;;;;22.63;74.86;100356.84;4989167;23;20074;-85
2022/08/01 03:18:18;;;;;;;4.93;1.65;;;;;;;22.60;75.00;100362.75;4977090;28;20035;-87
2022/08/01 03:20:49;;;;;;;3.67;1.65;;;;;;;22.56;75.71;100353.47;4976976;28;20039;-88
2022/08/01 03:23:25;;;;;;;6.18;1.98;;;;;;;22.48;76.52;100357.41;4973221;28;20098;-83
2022/08/01 03:26:12;;;;;;;3.72;1.70;;;;;;;22.50;76.35;100357.16;4974672;28;20049;-85
2022/08/01 03:28:40;;;;;;;4.35;1.50;;;;;;;22.39;77.15;100358.03;4993047;28;20062;-83
2022/08/01 03:31:09;;;;;;;8.45;1.63;;;;;;;22.21;80.14;100347.44;4941304;28;20058;-82
2022/08/01 03:33:45;;;;;;;4.32;1.80;;;;;;;22.03;81.21;100351.16;4997827;28;20050;-82
2022/08/01 03:36:31;;;;;;;3.85;1.60;;;;;;;21.94;83.29;100355.31;4964899;28;20532;-84
2022/08/01 03:39:00;;;;;;;6.85;1.98;;;;;;;22.10;81.62;100349.97;4997014;28;20031;-86
2022/08/01 03:41:50;;;;;;;6.70;2.08;;;;;;;22.17;81.84;100347.91;4975143;28;20031;-83
2022/08/01 03:44:26;;;;;;;6.20;1.90;;;;;;;22.12;82.32;100350.53;4995863;28;20069;-83
2022/08/01 03:47:09;;;;;;;2.78;2.30;;;;;;;22.18;82.24;100354.16;4972831;28;20129;-84
2022/08/01 03:49:44;;;;;;;6.13;2.22;;;;;;;22.20;82.24;100356.63;4971897;28;20097;-86
2022/08/01 03:52:16;;;;;;;8.77;2.35;;;;;;;22.19;82.73;100354.97;4994448;28;20030;-86
2022/08/01 03:55:14;;;;;;;7.20;2.45;;;;;;;22.22;81.68;100355.31;4992541;28;20111;-84
2022/08/01 03:57:47;;;;;;;6.82;3.00;;;;;;;21.99;83.28;100360.81;4980643;28;20035;-81
2022/08/01 04:00:18;;;;;;;4.75;2.50;;;;;;;21.99;83.91;100355.41;4979591;28;20042;-82
2022/08/01 04:02:49;;;;;;;5.70;3.17;;;;;;;22.14;81.94;100361.09;4994187;28;20331;-87
2022/08/01 04:05:33;;;;;;;6.07;2.90;;;;;;;22.17;82.11;100364.13;4955706;28;20050;-84
2022/08/01 04:08:16;;;;;;;5.45;2.63;;;;;;;22.36;80.83;100366.63;4991546;28;20035;-82
2022/08/01 04:11:25;;;;;;;6.13;2.53;;;;;;;22.39;81.02;100371.53;4978857;28;20035;-83
2022/08/01 04:13:57;;;;;;;4.57;2.40;;;;;;;22.48;79.20;100370.91;4976683;28;20039;-85
2022/08/01 04:16:34;;;;;;;12.20;2.80;;;;;;;22.59;78.14;100380.81;4972655;28;20142;-85
2022/08/01 04:22:33;;;;;;;3.50;1.85;;;;;;;22.63;76.11;100373.06;4994988;28;20038;-81
2022/08/01 04:25:24;;;;;;;5.97;1.90;;;;;;;22.40;76.23;100378.59;4988100;28;20071;-86
2022/08/01 04:28:34;;;;;;;3.05;1.58;;;;;;;22.44;76.30;100380.53;4978130;28;20045;-87
2022/08/01 04:31:09;;;;;;;6.82;1.65;;;;;;;22.32;76.71;100381.66;4980524;28;20088;-86
2022/08/01 04:34:09;;;;;;;3.90;1.92;;;;;;;22.30;77.94;100384.63;5008026;23;20050;-85
2022/08/01 04:36:42;;;;;;;9.30;1.95;;;;;;;22.34;76.82;100379.56;4973638;28;20062;-84
2022/08/01 04:39:36;;;;;;;3.40;1.63;;;;;;;22.24;77.04;100379.38;4965412;28;20038;-84
2022/08/01 04:42:16;;;;;;;4.75;2.00;;;;;;;22.21;77.58;100382.53;4990194;28;20042;-86
2022/08/01 04:48:29;;;;;;;4.85;2.17;;;;;;;22.39;76.11;100385.03;4994697;28;19986;-87
2022/08/01 04:54:55;;;;;;;4.20;1.80;;;;;;;22.61;75.25;100380.56;5010371;23;20389;-84
2022/08/01 04:57:21;;;;;;;5.80;1.90;;;;;;;22.57;76.38;100384.84;4971273;28;20123;-83
2022/08/01 04:59:56;;;;;;;9.25;2.05;;;;;;;22.51;77.01;100383.09;4994010;28;20031;-84
2022/08/01 05:02:22;;;;;;;4.10;1.80;;;;;;;22.57;76.08;100384.84;4959742;28;20035;-84
2022/08/01 05:04:50;;;;;;;7.70;1.80;;;;;;;22.49;77.25;100382.53;5338393;23;20070;-83
2022/08/01 05:07:18;;;;;;;3.88;1.52;;;;;;;22.51;77.55;100386.63;4973223;28;20420;-89
2022/08/01 05:10:11;;;;;;;5.35;1.77;;;;;;;22.57;77.46;100379.44;5193183;23;20051;-85
2022/08/01 05:12:39;;;;;;;5.70;1.60;;;;;;;22.73;75.93;100384.06;4993579;28;20035;-87
2022/08/01 05:15:45;;;;;;;7.55;1.70;;;;;;;22.94;73.70;100390.59;4967325;23;20043;-86
2022/08/01 05:29:33;;;;;;;7.00;1.77;;;;;;;23.65;69.72;100384.38;5015685;28;20073;-82
2022/08/01 05:35:02;;;;;;;6.90;1.88;;;;;;;23.99;69.07;100388.59;5169465;23;20030;-86
2022/08/01 05:37:46;;;;;;;7.15;2.65;;;;;;;24.34;66.42;100395.50;4957066;28;20051;-85
2022/08/01 05:40:26;;;;;;;4.47;1.80;;;;;;;24.56;65.46;100399.78;4960103;28;20081;-85
2022/08/01 05:43:01;;;;;;;11.38;1.90;;;;;;;24.82;64.43;100402.75;4990762;28;20055;-85
2022/08/01 05:46:01;;;;;;;7.30;1.63;;;;;;;25.06;63.30;100399.44;5009633;23;20049;-85
2022/08/01 05:49:35;;;;;;;5.13;1.70;;;;;;;25.35;62.47;100408.06;4941022;29;20050;-85
2022/08/01 05:52:07;;;;;;;14.80;2.08;;;;;;;25.60;61.72;100407.41;4938077;29;20110;-83
2022/08/01 05:54:57;;;;;;;3.83;1.98;;;;;;;25.81;62.47;100402.88;4943223;29;20028;-84
2022/08/01 05:57:42;;;;;;;9.35;2.30;;;;;;;26.06;61.44;100405.69;4964920;28;20034;-84
2022/08/01 06:00:44;;;;;;;7.93;2.20;;;;;;;26.39;60.49;100405.28;4983990;28;20118;-85
2022/08/01 06:03:45;;;;;;;5.18;1.67;;;;;;;26.67;59.80;100401.25;4917392;29;20315;-89
2022/08/01 06:25:44;;;;;;;6.63;1.60;;;;;;;30.10;47.93;100423.00;3467872;23;20051;-87
2022/08/01 06:34:35;;;;;;;8.20;1.35;;;;;;;31.25;44.49;100425.91;5594545;23;19945;-87
2022/08/01 06:54:41;;;;;;;6.20;1.13;;;;;;;30.49;40.30;100441.94;4999331;28;20019;-87
2022/08/01 06:57:38;;;;;;;5.70;1.05;;;;;;;30.57;40.01;100444.81;4984773;28;20062;-88
2022/08/01 07:00:56;;;;;;;7.07;1.05;;;;;;;30.56;40.12;100439.66;4981817;28;20034;-88
2022/08/01 07:14:17;;;;;;;5.35;1.70;;;;;;;31.21;39.53;100438.59;5013421;28;20046;-85
2022/08/01 07:17:27;;;;;;;4.30;1.27;;;;;;;31.46;38.85;100439.22;5019943;23;20503;-86
2022/08/01 07:20:23;;;;;;;6.20;1.63;;;;;;;31.09;40.21;100440.97;4954470;29;20067;-87
2022/08/01 07:23:09;;;;;;;2.67;1.17;;;;;;;31.56;40.41;100439.06;4990065;28;20032;-84
2022/08/01 07:25:35;;;;;;;1.70;1.02;;;;;;;31.29;36.45;100433.53;4976036;28;20488;-80
2022/08/01 07:28:02;;;;;;;4.03;1.00;;;;;;;31.31;35.66;100429.38;4993412;28;20114;-89
2022/08/01 07:31:16;;;;;;;2.97;1.10;;;;;;;31.36;36.92;100431.19;5096334;23;20112;-87
2022/08/01 07:34:06;;;;;;;3.00;1.65;;;;;;;31.88;36.46;100440.94;4977385;28;20106;-80
2022/08/01 07:36:33;;;;;;;10.80;1.20;;;;;;;32.43;35.73;100437.00;4992355;28;20069;-84
2022/08/01 07:39:08;;;;;;;4.63;1.30;;;;;;;32.20;36.55;100433.41;4963587;28;20102;-85
2022/08/01 07:41:45;;;;;;;6.28;1.38;;;;;;;32.20;36.31;100438.88;4989519;28;20046;-83
2022/08/01 07:44:48;;;;;;;8.48;1.45;;;;;;;32.22;36.42;100436.63;4977860;28;20035;-84
2022/08/01 07:47:30;;;;;;;2.38;1.30;;;;;;;32.54;35.55;100440.34;4992476;28;20121;-87
2022/08/01 07:50:16;;;;;;;3.75;1.50;;;;;;;32.86;34.78;100429.16;4993034;28;20491;-84
2022/08/01 07:52:42;;;;;;;3.47;1.35;;;;;;;32.98;34.53;100429.38;4991933;28;20054;-84
2022/08/01 07:55:14;;;;;;;2.90;1.10;;;;;;;33.24;34.45;100427.63;4967938;28;20035;-87
2022/08/01 07:57:53;;;;;;;6.45;1.25;;;;;;;33.08;34.60;100426.38;4962520;29;20050;-86
2022/08/01 08:03:24;;;;;;;1.77;1.00;;;;;;;33.59;33.44;100425.88;5057668;23;20054;-84
2022/08/01 08:06:28;;;;;;;4.03;2.60;;;;;;;33.81;33.53;100421.47;4971094;28;20050;-84
2022/08/01 08:09:17;;;;;;;5.22;1.35;;;;;;;33.69;33.63;100424.81;4956776;28;20043;-86
2022/08/01 08:11:58;;;;;;;11.13;1.48;;;;;;;33.51;33.00;100428.59;5202207;23;20139;-84
2022/08/01 08:18:16;;;;;;;3.53;1.20;;;;;;;33.93;32.85;100433.47;4989701;28;20043;-87
2022/08/01 08:20:57;;;;;;;2.78;1.40;;;;;;;33.66;33.37;100431.75;4975905;28;20066;-86
2022/08/01 08:27:03;;;;;;;5.40;1.50;;;;;;;34.38;33.05;100430.47;4986782;28;20098;-90
2022/08/01 08:30:03;;;;;;;9.60;1.63;;;;;;;35.10;32.10;100431.47;4983383;23;20078;-87
2022/08/01 08:33:04;;;;;;;6.90;1.40;;;;;;;34.86;32.09;100428.41;4971179;28;20142;-88
2022/08/01 08:36:48;;;;;;;4.22;1.27;;;;;;;35.18;31.87;100430.66;4970022;28;20047;-87
2022/08/01 08:40:07;;;;;;;3.17;1.60;;;;;;;34.70;31.89;100432.81;4976932;28;20047;-90
2022/08/01 08:42:46;;;;;;;4.13;1.40;;;;;;;34.81;31.14;100433.25;4976138;28;20490;-84
2022/08/01 08:45:49;;;;;;;3.25;1.10;;;;;;;35.65;29.38;100441.69;4965255;28;20042;-87
2022/08/01 08:48:46;;;;;;;2.70;1.13;;;;;;;35.62;28.95;100431.34;4982133;28;20046;-85
2022/08/01 08:51:41;;;;;;;2.95;0.98;;;;;;;35.79;27.41;100434.03;4954387;28;20074;-82
2022/08/01 08:54:12;;;;;;;5.33;1.30;;;;;;;35.86;27.69;100426.03;4943520;28;20035;-82
2022/08/01 08:56:42;;;;;;;2.50;1.08;;;;;;;35.80;27.24;100427.34;4974081;28;20098;-80
2022/08/01 08:59:15;;;;;;;4.30;1.30;;;;;;;36.03;27.99;100436.94;4989791;28;20038;-82
2022/08/01 09:01:59;;;;;;;4.75;1.52;;;;;;;36.21;27.63;100438.50;4983675;28;20094;-82
2022/08/01 09:04:30;;;;;;;6.57;1.50;;;;;;;35.80;28.08;100423.81;4991757;28;20476;-84
2022/08/01 09:07:10;;;;;;;5.95;1.40;;;;;;;35.67;29.01;100431.94;4981246;28;20039;-88
2022/08/01 09:32:33;;;;;;;5.03;2.30;;;;;;;37.14;29.13;100413.19;5074326;23;20102;-83
2022/08/01 09:35:26;;;;;;;5.07;1.80;;;;;;;37.26;29.31;100412.38;4992702;28;20098;-84
2022/08/01 09:41:17;;;;;;;6.22;1.60;;;;;;;37.47;29.80;100402.09;5014852;23;20054;-80
2022/08/01 09:43:50;;;;;;;8.75;2.60;;;;;;;37.15;29.36;100412.06;4883512;29;20112;-80
2022/08/01 09:46:16;;;;;;;4.22;2.20;;;;;;;36.54;29.92;100407.41;4899723;29;20028;-78
2022/08/01 10:02:34;;;;;;;7.97;2.20;;;;;;;35.88;30.13;100396.16;4994187;23;20110;-82
2022/08/01 10:05:34;;;;;;;5.20;2.50;;;;;;;36.04;30.12;100396.38;4963868;28;20043;-85
2022/08/01 10:08:23;;;;;;;5.65;2.35;;;;;;;36.01;29.98;100388.75;4957157;29;20055;-85
2022/08/01 10:13:58;;;;;;;5.90;1.73;;;;;;;36.73;29.31;100380.09;5452646;23;20027;-90
2022/08/01 10:25:07;;;;;;;8.40;2.00;;;;;;;36.50;28.57;100376.88;4898588;23;20054;-87
2022/08/01 10:27:55;;;;;;;10.45;2.58;;;;;;;37.13;28.02;100372.88;5014391;28;20506;-86
2022/08/01 10:33:54;;;;;;;7.57;3.30;;;;;;;36.86;27.82;100369.91;5001826;23;20038;-84
2022/08/01 10:37:17;;;;;;;7.18;2.97;;;;;;;37.02;26.67;100366.19;5141973;23;20063;-88
2022/08/01 10:43:52;;;;;;;9.27;4.70;;;;;;;37.17;27.97;100359.97;4204400;23;20047;-91
2022/08/01 10:46:29;;;;;;;13.30;3.25;;;;;;;37.19;27.23;100354.09;5001513;23;20062;-87
2022/08/01 10:49:18;;;;;;;7.85;3.70;;;;;;;37.11;26.39;100361.38;4957453;29;20043;-90
2022/08/01 10:51:44;;;;;;;10.80;2.70;;;;;;;36.95;26.80;100349.34;4937157;29;20211;-85
2022/08/01 10:54:12;;;;;;;11.70;3.58;;;;;;;37.21;26.89;100349.84;4957503;29;20049;-91
2022/08/01 10:56:45;;;;;;;5.68;2.70;;;;;;;37.57;25.88;100351.03;4931669;29;20039;-87
2022/08/01 10:59:19;;;;;;;4.50;2.25;;;;;;;37.91;25.54;100350.53;4953453;29;20488;-85
2022/08/01 11:01:57;;;;;;;4.75;2.20;;;;;;;38.00;24.17;100348.47;4965203;29;20075;-88
2022/08/01 11:04:33;;;;;;;5.38;1.60;;;;;;;37.23;25.66;100335.69;4947771;29;20036;-91
2022/08/01 11:07:17;;;;;;;4.85;1.80;;;;;;;37.15;25.30;100329.13;4951117;29;20035;-87
2022/08/01 11:10:07;;;;;;;3.58;1.50;;;;;;;37.39;25.59;100333.84;4943370;29;20034;-87
2022/08/01 11:13:07;;;;;;;2.88;1.60;;;;;;;37.51;25.82;100335.84;4958355;28;20034;-89
2022/08/01 11:15:43;;;;;;;3.45;1.30;;;;;;;37.68;25.43;100324.53;4956435;29;20050;-86
2022/08/01 11:18:27;;;;;;;4.55;1.55;;;;;;;38.34;24.68;100330.50;4950953;29;20073;-87
2022/08/01 11:21:04;;;;;;;3.50;1.20;;;;;;;38.92;24.56;100309.56;4947413;29;20067;-84
2022/08/01 11:26:15;;;;;;;5.03;1.50;;;;;;;38.34;25.37;100296.44;4582567;26;20055;-85
2022/08/01 11:33:00;;;;;;;5.85;1.40;;;;;;;38.25;24.98;100286.31;4990576;28;20042;-83
2022/08/01 11:43:57;;;;;;;2.30;0.98;;;;;;;36.23;26.98;100270.59;3130142;23;20050;-85
2022/08/01 11:47:04;;;;;;;3.17;1.35;;;;;;;36.39;27.17;100272.72;4972946;29;20071;-84
2022/08/01 12:14:35;;;;;;;4.95;1.40;;;;;;;34.88;25.61;100235.28;5131344;23;20027;-86
2022/08/01 12:17:29;;;;;;;3.25;0.90;;;;;;;34.78;26.54;100230.94;4975484;28;20053;-84
2022/08/01 12:19:58;;;;;;;2.70;1.02;;;;;;;34.95;26.34;100228.13;4956168;29;20098;-86
2022/08/01 12:22:27;;;;;;;2.53;0.90;;;;;;;35.05;27.37;100233.25;4971657;28;20035;-84
2022/08/01 12:25:10;;;;;;;2.50;1.08;;;;;;;34.86;27.33;100227.38;4965150;28;20067;-83
2022/08/01 12:27:47;;;;;;;3.10;0.93;;;;;;;35.24;27.04;100221.84;4981495;28;20060;-85
2022/08/01 12:30:18;;;;;;;2.88;0.93;;;;;;;35.06;27.54;100221.13;4973485;28;20617;-83
2022/08/01 12:32:54;;;;;;;7.53;1.10;;;;;;;35.04;27.68;100219.81;4958397;29;20055;-87
2022/08/01 12:35:52;;;;;;;7.28;1.65;;;;;;;35.08;27.49;100218.81;4963544;28;20051;-87
2022/08/01 12:38:26;;;;;;;4.45;1.20;;;;;;;34.97;27.59;100209.31;4957196;29;20074;-87
2022/08/01 12:41:16;;;;;;;3.97;1.48;;;;;;;34.79;28.04;100213.28;4954938;29;20052;-87
2022/08/01 12:43:52;;;;;;;2.42;0.98;;;;;;;34.68;28.03;100206.53;4970887;29;20047;-88
2022/08/01 12:46:30;;;;;;;7.63;1.38;;;;;;;34.82;28.92;100198.88;4964200;29;20059;-90
2022/08/01 13:04:26;;;;;;;8.52;1.02;;;;;;;34.64;28.61;100187.09;4994489;28;20123;-90
2022/08/01 13:07:54;;;;;;;10.07;1.67;;;;;;;34.80;28.65;100186.56;4992410;28;20126;-91
2022/08/01 13:18:01;;;;;;;3.90;1.00;;;;;;;34.36;29.58;100179.59;5186629;23;20041;-90
2022/08/01 13:26:57;;;;;;;6.90;1.67;;;;;;;34.50;29.46;100164.50;5201340;23;20051;-92
2022/08/01 13:29:42;;;;;;;9.07;2.00;;;;;;;34.39;29.40;100168.72;4872341;29;20041;-87
2022/08/01 13:32:19;;;;;;;4.38;1.30;;;;;;;34.22;29.74;100164.09;4906578;29;20108;-83
2022/08/01 13:34:48;;;;;;;8.32;1.40;;;;;;;34.37;29.62;100162.72;4907893;29;20060;-87
2022/08/01 13:37:13;;;;;;;10.23;1.85;;;;;;;34.36;30.13;100158.38;4905641;29;20064;-85
2022/08/01 13:39:44;;;;;;;2.72;1.30;;;;;;;34.49;29.66;100160.09;4887308;29;20040;-84
2022/08/01 13:42:15;;;;;;;4.72;0.88;;;;;;;34.57;29.73;100156.50;4886726;29;20044;-84
2022/08/01 13:44:41;;;;;;;5.28;1.10;;;;;;;34.61;29.52;100153.94;4925712;29;20098;-84
2022/08/01 13:47:08;;;;;;;4.25;1.30;;;;;;;34.40;29.77;100153.03;4925456;29;20107;-86
2022/08/01 13:49:34;;;;;;;3.97;1.15;;;;;;;34.51;29.55;100151.50;4936890;29;20043;-83
2022/08/01 13:52:01;;;;;;;2.40;1.10;;;;;;;34.43;29.63;100153.19;4920981;29;20032;-85
2022/08/01 13:54:27;;;;;;;7.85;1.20;;;;;;;34.39;29.57;100151.41;4922442;29;20382;-85
2022/08/01 13:56:53;;;;;;;5.32;1.27;;;;;;;34.42;29.55;100145.22;4937501;29;20036;-83
2022/08/01 13:59:19;;;;;;;3.03;1.15;;;;;;;34.63;29.71;100157.16;4934947;29;20036;-83
2022/08/01 14:01:46;;;;;;;3.35;1.27;;;;;;;34.53;28.86;100152.00;4934927;29;20031;-84
2022/08/01 14:04:11;;;;;;;3.55;1.42;;;;;;;34.45;29.79;100155.59;4934714;29;20036;-84
2022/08/01 14:06:37;;;;;;;6.95;1.20;;;;;;;34.58;29.73;100149.88;4922295;29;20043;-84
2022/08/01 14:09:04;;;;;;;5.28;1.50;;;;;;;34.69;29.95;100150.34;4939871;29;20035;-84
2022/08/01 14:11:29;;;;;;;7.95;1.20;;;;;;;34.79;29.52;100158.22;4943894;29;20458;-84
2022/08/01 14:13:55;;;;;;;4.70;1.15;;;;;;;34.73;29.18;100156.81;4947964;29;20039;-84
2022/08/01 14:16:21;;;;;;;5.03;1.30;;;;;;;34.65;29.56;100152.13;4925231;29;20028;-88
2022/08/01 14:18:48;;;;;;;6.45;1.35;;;;;;;34.49;29.27;100140.84;4929491;29;20040;-87
2022/08/01 14:21:14;;;;;;;3.72;1.50;;;;;;;34.37;30.00;100137.97;4934153;29;20043;-86
2022/08/01 14:23:44;;;;;;;4.10;0.98;;;;;;;34.64;29.35;100153.25;4951950;29;20063;-86
2022/08/01 14:26:09;;;;;;;7.78;1.40;;;;;;;34.67;29.43;100147.91;4945764;29;20039;-85
2022/08/01 14:28:36;;;;;;;4.72;1.10;;;;;;;34.72;29.35;100144.16;4951689;29;20040;-86
2022/08/01 14:31:08;;;;;;;3.65;1.27;;;;;;;34.72;29.64;100146.91;4963550;28;20035;-86
2022/08/01 14:33:33;;;;;;;3.95;0.82;;;;;;;34.54;29.44;100143.41;4947780;28;20121;-85
2022/08/01 14:35:59;;;;;;;5.28;1.30;;;;;;;34.60;29.81;100136.56;4960566;28;20087;-85
2022/08/01 14:38:25;;;;;;;7.25;1.15;;;;;;;34.65;30.08;100132.84;4949951;28;20032;-84
2022/08/01 14:40:51;;;;;;;8.45;1.30;;;;;;;34.62;30.59;100128.00;4958138;29;20062;-83
2022/08/01 14:43:17;;;;;;;3.33;1.27;;;;;;;34.59;29.53;100125.91;4958971;29;20429;-84
2022/08/01 14:45:43;;;;;;;6.68;1.10;;;;;;;34.42;30.05;100128.72;4962611;29;20172;-84
2022/08/01 14:48:09;;;;;;;4.60;1.48;;;;;;;34.55;29.44;100124.94;4956488;28;20465;-83
2022/08/01 14:50:35;;;;;;;6.00;1.10;;;;;;;34.52;29.75;100122.84;4940068;29;20041;-81
2022/08/01 14:53:00;;;;;;;7.18;1.30;;;;;;;34.54;29.55;100132.38;4940453;29;20039;-81
2022/08/01 14:55:26;;;;;;;6.95;1.73;;;;;;;34.54;29.63;100121.38;4957093;29;20039;-83
2022/08/01 14:57:52;;;;;;;7.35;2.45;;;;;;;34.60;29.52;100130.28;4951915;29;20042;-81
2022/08/01 15:00:19;;;;;;;8.10;3.60;;;;;;;34.61;29.61;100129.16;4936131;29;20035;-82
2022/08/01 15:02:45;;;;;;;6.70;3.10;;;;;;;34.51;29.38;100129.47;4957218;29;20089;-83
2022/08/01 15:05:11;;;;;;;4.00;2.20;;;;;;;34.37;29.42;100126.94;4957312;29;20432;-82
2022/08/01 15:07:37;;;;;;;5.18;1.30;;;;;;;34.33;29.62;100125.22;4951534;29;20038;-84
2022/08/01 15:10:06;;;;;;;7.47;2.28;;;;;;;34.31;29.51;100121.97;4920913;29;20047;-82
2022/08/01 15:12:33;;;;;;;7.25;1.85;;;;;;;34.28;29.67;100112.41;4938024;29;20031;-82
2022/08/01 15:14:59;;;;;;;5.28;1.10;;;;;;;34.39;29.63;100115.63;4938011;29;20047;-82
2022/08/01 15:17:31;;;;;;;6.47;1.13;;;;;;;34.69;28.94;100118.09;4949226;29;20039;-82
2022/08/01 15:20:03;;;;;;;6.82;1.00;;;;;;;34.62;29.28;100117.81;4954400;28;20078;-81
2022/08/01 15:22:29;;;;;;;10.05;1.20;;;;;;;34.45;29.03;100120.63;4957105;29;20031;-85
2022/08/01 15:24:56;;;;;;;10.73;1.20;;;;;;;34.45;29.62;100117.88;4956783;29;20067;-81
2022/08/01 15:27:22;;;;;;;6.93;1.50;;;;;;;34.45;29.77;100117.06;4937217;29;20078;-84
2022/08/01 15:29:49;;;;;;;7.93;1.83;;;;;;;34.33;30.07;100105.94;4950187;29;20027;-82
2022/08/01 15:32:15;;;;;;;2.47;1.10;;;;;;;34.55;29.66;100111.19;4956555;28;20043;-84
2022/08/01 15:34:41;;;;;;;5.70;1.30;;;;;;;34.66;28.98;100109.72;4957740;29;20142;-85
2022/08/01 15:37:07;;;;;;;6.93;1.15;;;;;;;34.78;28.95;100109.78;4944125;29;20050;-88
2022/08/01 15:39:51;;;;;;;3.05;1.15;;;;;;;34.45;29.69;100100.53;4960034;29;20465;-85
2022/08/01 15:42:17;;;;;;;4.20;1.00;;;;;;;34.46;29.44;100102.97;4945542;29;20055;-85
2022/08/01 15:44:43;;;;;;;5.85;1.30;;;;;;;34.44;29.49;100104.44;4946854;29;20067;-86
2022/08/01 15:47:09;;;;;;;3.20;1.35;;;;;;;34.36;29.79;100102.53;4953767;28;20038;-84
2022/08/01 15:49:38;;;;;;;2.40;1.20;;;;;;;34.15;29.59;100106.00;4965368;28;20042;-85
2022/08/01 15:52:07;;;;;;;7.38;1.40;;;;;;;34.18;30.02;100108.09;4967514;28;20066;-85
2022/08/01 15:54:33;;;;;;;4.57;1.17;;;;;;;34.22;29.50;100103.56;4962779;28;20061;-85
2022/08/01 15:56:59;;;;;;;3.10;1.45;;;;;;;34.36;29.24;100103.34;4962084;28;20063;-84
2022/08/01 15:59:24;;;;;;;5.15;3.92;;;;;;;34.31;29.09;100094.44;4959264;28;20066;-84
2022/08/01 16:01:51;;;;;;;8.10;2.95;;;;;;;34.18;29.51;100097.09;4961881;28;20039;-87
2022/08/01 16:04:18;;;;;;;3.10;1.55;;;;;;;34.25;29.48;100100.13;4944671;29;20066;-87
2022/08/01 16:06:44;;;;;;;6.20;1.45;;;;;;;34.29;29.81;100103.03;4961504;28;20047;-87
2022/08/01 16:09:09;;;;;;;7.55;1.40;;;;;;;34.37;29.60;100096.69;4962481;28;20065;-84
2022/08/01 16:11:35;;;;;;;5.72;1.25;;;;;;;34.37;29.43;100095.91;4965477;28;20035;-85
2022/08/01 16:14:01;;;;;;;3.20;1.00;;;;;;;34.19;29.68;100086.91;4965569;28;20035;-87
2022/08/01 16:16:27;;;;;;;6.07;1.30;;;;;;;34.34;29.64;100083.59;4967504;28;20112;-87
2022/08/01 16:18:53;;;;;;;2.22;1.10;;;;;;;34.53;29.19;100092.25;4948123;28;20045;-86
2022/08/01 16:21:19;;;;;;;4.57;1.23;;;;;;;34.48;29.31;100088.88;4962320;28;20031;-85
2022/08/01 16:23:45;;;;;;;4.78;1.20;;;;;;;34.34;29.84;100085.56;4964355;28;20031;-87